RYR349 EDDK-LEPA
Flight info
| Callsign | RYR349 |
|---|---|
| Flight time | 1h 58m |
| Altitude | 35000 |
| Route | EDDK/24 NVO2D NVO Y868 NAVAK Z283 SOPOK DCT ROUSY DCT GTQ/N0443F370 DCT POGOL DCT LASAT DCT MOROK DCT GILIR DCT GEVEA DCT INCUS DCT BALSI DCT RETNO DCT TUPOX DCT MTG DCT DIVKO DCT VATIR DCT PIVUS DCT BODEQ DCT VERSO L129 LUNIK LUNI3P |
| Aircraft | A320/M-SDE3FGHIRWY/LB1 |
Departure
| Time | 2026-04-25 13:39 |
|---|---|
| Airport | Cologne Bonn Airport (EDDK) |
Arrival
| Time | 2026-04-25 15:37 |
|---|---|
| Airport | Palma de Mallorca Airport (LEPA) |
| Time | Latitude | Longitude | Altitude | Speed | Heading |
|---|---|---|---|---|---|
| 2026-04-25 13:08 | 50.87769 | 7.12402 | 232 ft | 0 kts | 288° |
| 2026-04-25 13:28 | 50.87763 | 7.12430 | 233 ft | 4 kts | 288° |
| 2026-04-25 13:28 | 50.87755 | 7.12470 | 235 ft | 4 kts | 288° |
| 2026-04-25 13:29 | 50.87748 | 7.12506 | 233 ft | 4 kts | 295° |
| 2026-04-25 13:29 | 50.87733 | 7.12532 | 233 ft | 4 kts | 355° |
| 2026-04-25 13:29 | 50.87709 | 7.12524 | 232 ft | 4 kts | 25° |
| 2026-04-25 13:30 | 50.87691 | 7.12511 | 233 ft | 0 kts | 18° |
| 2026-04-25 13:33 | 50.87724 | 7.12529 | 236 ft | 13 kts | 20° |
| 2026-04-25 13:33 | 50.87766 | 7.12606 | 232 ft | 14 kts | 71° |
| 2026-04-25 13:34 | 50.87793 | 7.12790 | 233 ft | 12 kts | 76° |
| 2026-04-25 13:34 | 50.87818 | 7.12949 | 240 ft | 19 kts | 75° |
| 2026-04-25 13:34 | 50.87842 | 7.13134 | 239 ft | 16 kts | 78° |
| 2026-04-25 13:34 | 50.87781 | 7.13295 | 239 ft | 27 kts | 138° |
| 2026-04-25 13:35 | 50.87631 | 7.13511 | 239 ft | 30 kts | 137° |
| 2026-04-25 13:35 | 50.87478 | 7.13735 | 240 ft | 30 kts | 137° |
| 2026-04-25 13:35 | 50.87323 | 7.13960 | 242 ft | 31 kts | 137° |
| 2026-04-25 13:35 | 50.87168 | 7.14183 | 248 ft | 29 kts | 137° |
| 2026-04-25 13:36 | 50.87022 | 7.14394 | 255 ft | 28 kts | 137° |
| 2026-04-25 13:36 | 50.86893 | 7.14601 | 261 ft | 24 kts | 114° |
| 2026-04-25 13:36 | 50.86938 | 7.14816 | 265 ft | 19 kts | 67° |
| 2026-04-25 13:36 | 50.86987 | 7.14979 | 269 ft | 14 kts | 63° |
| 2026-04-25 13:37 | 50.87025 | 7.15097 | 272 ft | 11 kts | 63° |
| 2026-04-25 13:37 | 50.87078 | 7.15267 | 279 ft | 20 kts | 64° |
| 2026-04-25 13:37 | 50.87077 | 7.15441 | 278 ft | 16 kts | 148° |
| 2026-04-25 13:37 | 50.86979 | 7.15503 | 278 ft | 14 kts | 173° |
| 2026-04-25 13:38 | 50.86932 | 7.15414 | 281 ft | 3 kts | 243° |
| 2026-04-25 13:38 | 50.86932 | 7.15413 | 281 ft | 0 kts | 243° |
| 2026-04-25 13:38 | 50.86931 | 7.15412 | 281 ft | 1 kts | 243° |
| 2026-04-25 13:38 | 50.86879 | 7.15243 | 279 ft | 51 kts | 245° |
| 2026-04-25 13:39 | 50.86627 | 7.14395 | 263 ft | 117 kts | 244° |
| 2026-04-25 13:39 | 50.86198 | 7.12993 | 368 ft | 155 kts | 245° |
| 2026-04-25 13:39 | 50.85732 | 7.11516 | 1109 ft | 153 kts | 246° |
| 2026-04-25 13:39 | 50.85269 | 7.09994 | 1804 ft | 154 kts | 249° |
| 2026-04-25 13:40 | 50.84801 | 7.08436 | 2385 ft | 164 kts | 249° |
| 2026-04-25 13:40 | 50.84298 | 7.06717 | 2646 ft | 184 kts | 253° |
| 2026-04-25 13:40 | 50.84095 | 7.04612 | 2929 ft | 205 kts | 269° |
| 2026-04-25 13:40 | 50.84000 | 7.02220 | 3290 ft | 230 kts | 269° |
| 2026-04-25 13:41 | 50.83892 | 6.99568 | 3821 ft | 251 kts | 268° |
| 2026-04-25 13:41 | 50.83773 | 6.96767 | 4678 ft | 258 kts | 268° |
| 2026-04-25 13:41 | 50.83550 | 6.93940 | 5581 ft | 263 kts | 256° |
| 2026-04-25 13:41 | 50.82684 | 6.91358 | 6423 ft | 271 kts | 235° |
| 2026-04-25 13:42 | 50.81526 | 6.88985 | 7250 ft | 274 kts | 235° |
| 2026-04-25 13:42 | 50.80346 | 6.86602 | 8073 ft | 277 kts | 234° |
| 2026-04-25 13:42 | 50.79149 | 6.84197 | 8885 ft | 280 kts | 235° |
| 2026-04-25 13:42 | 50.77937 | 6.81761 | 9719 ft | 283 kts | 235° |
| 2026-04-25 13:43 | 50.76713 | 6.79296 | 10480 ft | 287 kts | 235° |
| 2026-04-25 13:43 | 50.75437 | 6.76724 | 10784 ft | 309 kts | 235° |
| 2026-04-25 13:43 | 50.74065 | 6.73952 | 11015 ft | 331 kts | 234° |
| 2026-04-25 13:43 | 50.72624 | 6.71048 | 11554 ft | 340 kts | 234° |
| 2026-04-25 13:44 | 50.71155 | 6.68095 | 12249 ft | 344 kts | 234° |
| 2026-04-25 13:44 | 50.69668 | 6.65111 | 12965 ft | 348 kts | 234° |
| 2026-04-25 13:44 | 50.68165 | 6.62096 | 13655 ft | 352 kts | 234° |
| 2026-04-25 13:44 | 50.66644 | 6.59047 | 14307 ft | 355 kts | 234° |
| 2026-04-25 13:45 | 50.65107 | 6.55972 | 14905 ft | 359 kts | 234° |
| 2026-04-25 13:45 | 50.63556 | 6.52869 | 15510 ft | 362 kts | 234° |
| 2026-04-25 13:45 | 50.61991 | 6.49733 | 16131 ft | 365 kts | 234° |
| 2026-04-25 13:45 | 50.60412 | 6.46576 | 16721 ft | 369 kts | 234° |
| 2026-04-25 13:46 | 50.58820 | 6.43399 | 17304 ft | 372 kts | 234° |
| 2026-04-25 13:46 | 50.57210 | 6.40189 | 17903 ft | 375 kts | 234° |
| 2026-04-25 13:46 | 50.55585 | 6.36954 | 18492 ft | 379 kts | 234° |
| 2026-04-25 13:46 | 50.53945 | 6.33690 | 19011 ft | 382 kts | 234° |
| 2026-04-25 13:47 | 50.52291 | 6.30407 | 19516 ft | 385 kts | 234° |
| 2026-04-25 13:47 | 50.50624 | 6.27105 | 20038 ft | 387 kts | 234° |
| 2026-04-25 13:47 | 50.48942 | 6.23774 | 20563 ft | 390 kts | 234° |
| 2026-04-25 13:47 | 50.47249 | 6.20425 | 21045 ft | 394 kts | 234° |
| 2026-04-25 13:48 | 50.45534 | 6.17041 | 21536 ft | 398 kts | 234° |
| 2026-04-25 13:48 | 50.43804 | 6.13633 | 22036 ft | 401 kts | 235° |
| 2026-04-25 13:48 | 50.42062 | 6.10205 | 22533 ft | 404 kts | 235° |
| 2026-04-25 13:48 | 50.40304 | 6.06747 | 23022 ft | 407 kts | 235° |
| 2026-04-25 13:49 | 50.38533 | 6.03273 | 23490 ft | 409 kts | 236° |
| 2026-04-25 13:49 | 50.36749 | 5.99776 | 23920 ft | 412 kts | 236° |
| 2026-04-25 13:49 | 50.34954 | 5.96264 | 24313 ft | 414 kts | 236° |
| 2026-04-25 13:49 | 50.33150 | 5.92740 | 24703 ft | 416 kts | 236° |
| 2026-04-25 13:50 | 50.31336 | 5.89203 | 25096 ft | 418 kts | 236° |
| 2026-04-25 13:50 | 50.29429 | 5.85754 | 25449 ft | 424 kts | 228° |
| 2026-04-25 13:50 | 50.27065 | 5.82933 | 25797 ft | 433 kts | 214° |
| 2026-04-25 13:50 | 50.24278 | 5.81029 | 26146 ft | 443 kts | 200° |
| 2026-04-25 13:51 | 50.21214 | 5.80226 | 26481 ft | 452 kts | 185° |
| 2026-04-25 13:51 | 50.18058 | 5.80641 | 26809 ft | 460 kts | 169° |
| 2026-04-25 13:51 | 50.14956 | 5.81974 | 27143 ft | 464 kts | 166° |
| 2026-04-25 13:51 | 50.11852 | 5.83372 | 27476 ft | 466 kts | 166° |
| 2026-04-25 13:52 | 50.08730 | 5.84769 | 27799 ft | 467 kts | 166° |
| 2026-04-25 13:52 | 50.05599 | 5.86158 | 28118 ft | 469 kts | 167° |
| 2026-04-25 13:52 | 50.02453 | 5.87546 | 28424 ft | 471 kts | 167° |
| 2026-04-25 13:52 | 49.99294 | 5.88935 | 28741 ft | 472 kts | 167° |
| 2026-04-25 13:53 | 49.96128 | 5.90328 | 29043 ft | 474 kts | 167° |
| 2026-04-25 13:53 | 49.92949 | 5.91730 | 29350 ft | 476 kts | 166° |
| 2026-04-25 13:53 | 49.89756 | 5.93137 | 29569 ft | 479 kts | 166° |
| 2026-04-25 13:53 | 49.86544 | 5.94550 | 29817 ft | 481 kts | 166° |
| 2026-04-25 13:54 | 49.83318 | 5.95966 | 30067 ft | 483 kts | 166° |
| 2026-04-25 13:54 | 49.80082 | 5.97382 | 30290 ft | 484 kts | 166° |
| 2026-04-25 13:54 | 49.76837 | 5.98803 | 30505 ft | 485 kts | 166° |
| 2026-04-25 13:54 | 49.73586 | 6.00225 | 30733 ft | 486 kts | 166° |
| 2026-04-25 13:55 | 49.70340 | 6.01642 | 31037 ft | 484 kts | 166° |
| 2026-04-25 13:55 | 49.67103 | 6.03053 | 31343 ft | 483 kts | 166° |
| 2026-04-25 13:55 | 49.63876 | 6.04459 | 31641 ft | 481 kts | 166° |
| 2026-04-25 13:55 | 49.60656 | 6.05861 | 31944 ft | 480 kts | 166° |
| 2026-04-25 13:56 | 49.57444 | 6.07257 | 32236 ft | 479 kts | 166° |
| 2026-04-25 13:56 | 49.54242 | 6.08645 | 32540 ft | 478 kts | 166° |
| 2026-04-25 13:56 | 49.51057 | 6.10071 | 32831 ft | 477 kts | 163° |
| 2026-04-25 13:56 | 49.47990 | 6.12040 | 33122 ft | 478 kts | 154° |
| 2026-04-25 13:57 | 49.45139 | 6.14676 | 33410 ft | 479 kts | 145° |
| 2026-04-25 13:57 | 49.39937 | 6.21057 | 33982 ft | 478 kts | 142° |
| 2026-04-25 13:57 | 49.37356 | 6.24261 | 34253 ft | 477 kts | 142° |
| 2026-04-25 13:58 | 49.34780 | 6.27447 | 34528 ft | 475 kts | 142° |
| 2026-04-25 13:58 | 49.32205 | 6.30619 | 34786 ft | 474 kts | 142° |
| 2026-04-25 13:58 | 49.29638 | 6.33777 | 35023 ft | 473 kts | 142° |
| 2026-04-25 13:59 | 49.24543 | 6.40031 | 35143 ft | 471 kts | 142° |
| 2026-04-25 13:59 | 49.19434 | 6.46293 | 35140 ft | 470 kts | 142° |
| 2026-04-25 14:00 | 49.15158 | 6.51534 | 35142 ft | 470 kts | 142° |
| 2026-04-25 14:00 | 49.09217 | 6.58790 | 35146 ft | 470 kts | 142° |
| 2026-04-25 14:01 | 49.04097 | 6.65003 | 35161 ft | 470 kts | 144° |
| 2026-04-25 14:01 | 48.98390 | 6.69671 | 35154 ft | 465 kts | 163° |
| 2026-04-25 14:02 | 48.92091 | 6.71338 | 35150 ft | 458 kts | 182° |
| 2026-04-25 14:02 | 48.85730 | 6.71087 | 35131 ft | 457 kts | 184° |
| 2026-04-25 14:03 | 48.79363 | 6.70852 | 35130 ft | 458 kts | 184° |
| 2026-04-25 14:03 | 48.72997 | 6.70616 | 35131 ft | 458 kts | 184° |
| 2026-04-25 14:04 | 48.66622 | 6.70368 | 35130 ft | 458 kts | 184° |
| 2026-04-25 14:04 | 48.60245 | 6.70129 | 35127 ft | 459 kts | 184° |
| 2026-04-25 14:05 | 48.53862 | 6.69892 | 35135 ft | 459 kts | 184° |
| 2026-04-25 14:05 | 48.47479 | 6.69640 | 35136 ft | 459 kts | 184° |
| 2026-04-25 14:06 | 48.41095 | 6.69383 | 35135 ft | 459 kts | 184° |
| 2026-04-25 14:06 | 48.34710 | 6.69129 | 35128 ft | 459 kts | 184° |
| 2026-04-25 14:07 | 48.28318 | 6.68881 | 35143 ft | 459 kts | 184° |
| 2026-04-25 14:07 | 48.21926 | 6.68644 | 35130 ft | 460 kts | 184° |
| 2026-04-25 14:08 | 48.15533 | 6.68403 | 35137 ft | 460 kts | 184° |
| 2026-04-25 14:08 | 48.09140 | 6.68165 | 35139 ft | 460 kts | 184° |
| 2026-04-25 14:09 | 48.02747 | 6.67919 | 35132 ft | 459 kts | 184° |
| 2026-04-25 14:09 | 47.97438 | 6.67714 | 35135 ft | 459 kts | 184° |
| 2026-04-25 14:10 | 47.90010 | 6.67432 | 35135 ft | 459 kts | 184° |
| 2026-04-25 14:10 | 47.84659 | 6.67228 | 35134 ft | 459 kts | 184° |
| 2026-04-25 14:11 | 47.78274 | 6.66987 | 35124 ft | 459 kts | 184° |
| 2026-04-25 14:11 | 47.71890 | 6.66750 | 35120 ft | 459 kts | 184° |
| 2026-04-25 14:12 | 47.65510 | 6.66506 | 35117 ft | 459 kts | 184° |
| 2026-04-25 14:12 | 47.59130 | 6.66265 | 35101 ft | 459 kts | 185° |
| 2026-04-25 14:13 | 47.52752 | 6.66034 | 35109 ft | 458 kts | 185° |
| 2026-04-25 14:13 | 47.46372 | 6.65800 | 35111 ft | 458 kts | 186° |
| 2026-04-25 14:14 | 47.40218 | 6.64007 | 35110 ft | 448 kts | 205° |
| 2026-04-25 14:14 | 47.34879 | 6.59535 | 35103 ft | 438 kts | 223° |
| 2026-04-25 14:15 | 47.30248 | 6.53711 | 35111 ft | 438 kts | 224° |
| 2026-04-25 14:15 | 47.25611 | 6.47901 | 35112 ft | 438 kts | 224° |
| 2026-04-25 14:16 | 47.20997 | 6.42139 | 35112 ft | 438 kts | 224° |
| 2026-04-25 14:16 | 47.16348 | 6.36358 | 35114 ft | 437 kts | 224° |
| 2026-04-25 14:17 | 47.11711 | 6.30591 | 35121 ft | 437 kts | 224° |
| 2026-04-25 14:17 | 47.06673 | 6.25555 | 35355 ft | 445 kts | 207° |
| 2026-04-25 14:17 | 47.03754 | 6.23997 | 35558 ft | 449 kts | 198° |
| 2026-04-25 14:18 | 47.00674 | 6.23162 | 35752 ft | 453 kts | 188° |
| 2026-04-25 14:18 | 46.97536 | 6.22759 | 35961 ft | 452 kts | 188° |
| 2026-04-25 14:18 | 46.94404 | 6.22345 | 36169 ft | 452 kts | 188° |
| 2026-04-25 14:18 | 46.91277 | 6.21922 | 36364 ft | 451 kts | 188° |
| 2026-04-25 14:19 | 46.88153 | 6.21498 | 36561 ft | 451 kts | 188° |
| 2026-04-25 14:19 | 46.85031 | 6.21076 | 36736 ft | 450 kts | 188° |
| 2026-04-25 14:19 | 46.81911 | 6.20656 | 36923 ft | 450 kts | 188° |
| 2026-04-25 14:19 | 46.78795 | 6.20242 | 37070 ft | 450 kts | 188° |
| 2026-04-25 14:20 | 46.75680 | 6.19830 | 37113 ft | 449 kts | 188° |
| 2026-04-25 14:20 | 46.69461 | 6.19004 | 37112 ft | 448 kts | 188° |
| 2026-04-25 14:21 | 46.63248 | 6.18176 | 37111 ft | 448 kts | 188° |
| 2026-04-25 14:21 | 46.57038 | 6.17366 | 37111 ft | 448 kts | 188° |
| 2026-04-25 14:22 | 46.50824 | 6.16556 | 37108 ft | 448 kts | 188° |
| 2026-04-25 14:22 | 46.44609 | 6.15740 | 37100 ft | 448 kts | 188° |
| 2026-04-25 14:23 | 46.38394 | 6.14923 | 37080 ft | 449 kts | 188° |
| 2026-04-25 14:23 | 46.32177 | 6.14110 | 37085 ft | 448 kts | 188° |
| 2026-04-25 14:24 | 46.25968 | 6.13293 | 37091 ft | 448 kts | 188° |
| 2026-04-25 14:24 | 46.19793 | 6.12186 | 37088 ft | 446 kts | 191° |
| 2026-04-25 14:25 | 46.13671 | 6.10724 | 37094 ft | 446 kts | 192° |
| 2026-04-25 14:25 | 46.07556 | 6.09243 | 37097 ft | 446 kts | 192° |
| 2026-04-25 14:26 | 46.01427 | 6.07864 | 37093 ft | 446 kts | 191° |
| 2026-04-25 14:26 | 45.95337 | 6.06546 | 37085 ft | 445 kts | 191° |
| 2026-04-25 14:27 | 45.89213 | 6.05215 | 37090 ft | 445 kts | 191° |
| 2026-04-25 14:27 | 45.83090 | 6.03860 | 37094 ft | 445 kts | 191° |
| 2026-04-25 14:28 | 45.76969 | 6.02496 | 37089 ft | 445 kts | 191° |
| 2026-04-25 14:28 | 45.70847 | 6.01139 | 37093 ft | 445 kts | 191° |
| 2026-04-25 14:29 | 45.64727 | 5.99797 | 37065 ft | 445 kts | 191° |
| 2026-04-25 14:29 | 45.58611 | 5.98460 | 37061 ft | 445 kts | 191° |
| 2026-04-25 14:30 | 45.52496 | 5.97112 | 37071 ft | 444 kts | 191° |
| 2026-04-25 14:30 | 45.43363 | 5.94911 | 37080 ft | 443 kts | 194° |
| 2026-04-25 14:31 | 45.37365 | 5.92969 | 37082 ft | 442 kts | 196° |
| 2026-04-25 14:31 | 45.31378 | 5.90968 | 37104 ft | 442 kts | 195° |
| 2026-04-25 14:32 | 45.25374 | 5.89065 | 37097 ft | 442 kts | 195° |
| 2026-04-25 14:32 | 45.19363 | 5.87218 | 37104 ft | 442 kts | 194° |
| 2026-04-25 14:33 | 45.13352 | 5.85370 | 37105 ft | 442 kts | 194° |
| 2026-04-25 14:33 | 45.07350 | 5.83517 | 37106 ft | 442 kts | 195° |
| 2026-04-25 14:34 | 45.01390 | 5.81669 | 37098 ft | 441 kts | 194° |
| 2026-04-25 14:34 | 44.95388 | 5.79819 | 37106 ft | 441 kts | 194° |
| 2026-04-25 14:35 | 44.89391 | 5.77977 | 37105 ft | 441 kts | 195° |
| 2026-04-25 14:35 | 44.83397 | 5.76138 | 37092 ft | 441 kts | 194° |
| 2026-04-25 14:36 | 44.77400 | 5.74305 | 37098 ft | 441 kts | 194° |
| 2026-04-25 14:36 | 44.71405 | 5.72482 | 37084 ft | 441 kts | 194° |
| 2026-04-25 14:37 | 44.65413 | 5.70668 | 37092 ft | 441 kts | 194° |
| 2026-04-25 14:37 | 44.59421 | 5.68838 | 37073 ft | 440 kts | 194° |
| 2026-04-25 14:38 | 44.53434 | 5.67014 | 37078 ft | 440 kts | 195° |
| 2026-04-25 14:38 | 44.47439 | 5.65198 | 37069 ft | 440 kts | 194° |
| 2026-04-25 14:39 | 44.41450 | 5.63391 | 37068 ft | 440 kts | 195° |
| 2026-04-25 14:39 | 44.35593 | 5.61042 | 37075 ft | 437 kts | 204° |
| 2026-04-25 14:40 | 44.29941 | 5.57920 | 37066 ft | 437 kts | 204° |
| 2026-04-25 14:40 | 44.24286 | 5.54824 | 37057 ft | 437 kts | 203° |
| 2026-04-25 14:41 | 44.18626 | 5.51747 | 37064 ft | 436 kts | 204° |
| 2026-04-25 14:41 | 44.12964 | 5.48670 | 37061 ft | 437 kts | 205° |
| 2026-04-25 14:42 | 44.09218 | 5.46632 | 37062 ft | 437 kts | 204° |
| 2026-04-25 14:42 | 44.01690 | 5.42534 | 37065 ft | 437 kts | 204° |
| 2026-04-25 14:43 | 43.96028 | 5.39465 | 37063 ft | 437 kts | 204° |
| 2026-04-25 14:43 | 43.90367 | 5.36404 | 37062 ft | 437 kts | 204° |
| 2026-04-25 14:44 | 43.84705 | 5.33348 | 37059 ft | 437 kts | 202° |
| 2026-04-25 14:44 | 43.79041 | 5.30297 | 37060 ft | 437 kts | 203° |
| 2026-04-25 14:45 | 43.73376 | 5.27246 | 37060 ft | 437 kts | 203° |
| 2026-04-25 14:45 | 43.67705 | 5.24195 | 37050 ft | 437 kts | 203° |
| 2026-04-25 14:46 | 43.62029 | 5.21152 | 37054 ft | 438 kts | 202° |
| 2026-04-25 14:46 | 43.56351 | 5.18112 | 37059 ft | 438 kts | 203° |
| 2026-04-25 14:47 | 43.52592 | 5.16106 | 37059 ft | 438 kts | 203° |
| 2026-04-25 14:47 | 43.44988 | 5.12068 | 37058 ft | 438 kts | 202° |
| 2026-04-25 14:48 | 43.39328 | 5.08970 | 37059 ft | 437 kts | 208° |
| 2026-04-25 14:48 | 43.34220 | 5.04520 | 37067 ft | 435 kts | 216° |
| 2026-04-25 14:49 | 43.29237 | 4.99809 | 37075 ft | 435 kts | 216° |
| 2026-04-25 14:49 | 43.24241 | 4.95122 | 37079 ft | 435 kts | 216° |
| 2026-04-25 14:50 | 43.19274 | 4.90472 | 37089 ft | 435 kts | 216° |
| 2026-04-25 14:50 | 43.14273 | 4.85795 | 37101 ft | 435 kts | 216° |
| 2026-04-25 14:51 | 43.09269 | 4.81126 | 37096 ft | 435 kts | 215° |
| 2026-04-25 14:51 | 43.04193 | 4.76615 | 37104 ft | 436 kts | 211° |
| 2026-04-25 14:52 | 42.98892 | 4.72579 | 37106 ft | 436 kts | 210° |
| 2026-04-25 14:52 | 42.95344 | 4.69889 | 37108 ft | 436 kts | 210° |
| 2026-04-25 14:53 | 42.88276 | 4.64554 | 37106 ft | 436 kts | 210° |
| 2026-04-25 14:53 | 42.82966 | 4.60547 | 37111 ft | 436 kts | 210° |
| 2026-04-25 14:54 | 42.77656 | 4.56540 | 37116 ft | 436 kts | 210° |
| 2026-04-25 14:54 | 42.72349 | 4.52558 | 37119 ft | 436 kts | 210° |
| 2026-04-25 14:55 | 42.67045 | 4.48574 | 37122 ft | 435 kts | 210° |
| 2026-04-25 14:55 | 42.61743 | 4.44605 | 37121 ft | 435 kts | 210° |
| 2026-04-25 14:56 | 42.56474 | 4.40669 | 37126 ft | 435 kts | 210° |
| 2026-04-25 14:56 | 42.51175 | 4.36715 | 37116 ft | 435 kts | 210° |
| 2026-04-25 14:57 | 42.45870 | 4.32768 | 37120 ft | 435 kts | 210° |
| 2026-04-25 14:57 | 42.40569 | 4.28825 | 37125 ft | 435 kts | 210° |
| 2026-04-25 14:58 | 42.36123 | 4.25533 | 37123 ft | 435 kts | 210° |
| 2026-04-25 14:58 | 42.30818 | 4.21606 | 37121 ft | 435 kts | 210° |
| 2026-04-25 14:59 | 42.25547 | 4.17702 | 37128 ft | 435 kts | 210° |
| 2026-04-25 14:59 | 42.20244 | 4.13787 | 37133 ft | 434 kts | 210° |
| 2026-04-25 15:00 | 42.14943 | 4.09884 | 37131 ft | 434 kts | 210° |
| 2026-04-25 15:00 | 42.09646 | 4.05988 | 37130 ft | 434 kts | 210° |
| 2026-04-25 15:01 | 42.04344 | 4.02104 | 37133 ft | 434 kts | 210° |
| 2026-04-25 15:01 | 41.99041 | 3.98226 | 37125 ft | 434 kts | 210° |
| 2026-04-25 15:02 | 41.93702 | 3.94437 | 37129 ft | 434 kts | 204° |
| 2026-04-25 15:02 | 41.87874 | 3.92306 | 37121 ft | 436 kts | 191° |
| 2026-04-25 15:03 | 41.81881 | 3.90939 | 37120 ft | 437 kts | 191° |
| 2026-04-25 15:03 | 41.75887 | 3.89551 | 37127 ft | 437 kts | 191° |
| 2026-04-25 15:04 | 41.69888 | 3.88168 | 37128 ft | 438 kts | 191° |
| 2026-04-25 15:04 | 41.63883 | 3.86794 | 37132 ft | 438 kts | 191° |
| 2026-04-25 15:05 | 41.57879 | 3.85418 | 37136 ft | 438 kts | 191° |
| 2026-04-25 15:06 | 41.48864 | 3.83351 | 37137 ft | 438 kts | 191° |
| 2026-04-25 15:06 | 41.42851 | 3.81977 | 37138 ft | 439 kts | 191° |
| 2026-04-25 15:07 | 41.36834 | 3.80606 | 37146 ft | 439 kts | 191° |
| 2026-04-25 15:07 | 41.30822 | 3.79233 | 37146 ft | 438 kts | 191° |
| 2026-04-25 15:08 | 41.24818 | 3.77860 | 37151 ft | 438 kts | 191° |
| 2026-04-25 15:08 | 41.18854 | 3.76502 | 37151 ft | 438 kts | 191° |
| 2026-04-25 15:09 | 41.12974 | 3.74511 | 37144 ft | 436 kts | 202° |
| 2026-04-25 15:09 | 41.04478 | 3.70106 | 36362 ft | 438 kts | 202° |
| 2026-04-25 15:10 | 41.01638 | 3.68645 | 35856 ft | 438 kts | 202° |
| 2026-04-25 15:10 | 40.98793 | 3.67184 | 35231 ft | 438 kts | 202° |
| 2026-04-25 15:10 | 40.93072 | 3.64246 | 34273 ft | 444 kts | 201° |
| 2026-04-25 15:11 | 40.90190 | 3.62765 | 33633 ft | 446 kts | 201° |
| 2026-04-25 15:11 | 40.87280 | 3.61275 | 32699 ft | 450 kts | 202° |
| 2026-04-25 15:11 | 40.84387 | 3.59798 | 32208 ft | 443 kts | 201° |
| 2026-04-25 15:12 | 40.78676 | 3.56882 | 31027 ft | 437 kts | 201° |
| 2026-04-25 15:12 | 40.75847 | 3.55437 | 30441 ft | 435 kts | 201° |
| 2026-04-25 15:12 | 40.73035 | 3.54002 | 29809 ft | 433 kts | 201° |
| 2026-04-25 15:12 | 40.71182 | 3.53058 | 29428 ft | 430 kts | 201° |
| 2026-04-25 15:13 | 40.67474 | 3.51168 | 28678 ft | 425 kts | 201° |
| 2026-04-25 15:13 | 40.62010 | 3.48387 | 27569 ft | 418 kts | 201° |
| 2026-04-25 15:13 | 40.59309 | 3.47015 | 27036 ft | 415 kts | 201° |
| 2026-04-25 15:14 | 40.56624 | 3.45657 | 26508 ft | 412 kts | 201° |
| 2026-04-25 15:14 | 40.53954 | 3.44304 | 25983 ft | 410 kts | 201° |
| 2026-04-25 15:14 | 40.51302 | 3.42960 | 25478 ft | 407 kts | 201° |
| 2026-04-25 15:14 | 40.48664 | 3.41624 | 24978 ft | 405 kts | 201° |
| 2026-04-25 15:15 | 40.46028 | 3.40339 | 24494 ft | 403 kts | 197° |
| 2026-04-25 15:15 | 40.43298 | 3.39564 | 24022 ft | 401 kts | 186° |
| 2026-04-25 15:15 | 40.40524 | 3.39439 | 23518 ft | 398 kts | 176° |
| 2026-04-25 15:15 | 40.37766 | 3.39610 | 23028 ft | 395 kts | 176° |
| 2026-04-25 15:16 | 40.35038 | 3.39771 | 22578 ft | 391 kts | 176° |
| 2026-04-25 15:16 | 40.32333 | 3.39927 | 22116 ft | 388 kts | 176° |
| 2026-04-25 15:16 | 40.27019 | 3.40226 | 21193 ft | 382 kts | 177° |
| 2026-04-25 15:17 | 40.21737 | 3.40511 | 20256 ft | 378 kts | 176° |
| 2026-04-25 15:17 | 40.19115 | 3.40658 | 19785 ft | 376 kts | 176° |
| 2026-04-25 15:17 | 40.16503 | 3.40807 | 19308 ft | 375 kts | 176° |
| 2026-04-25 15:18 | 40.13901 | 3.40957 | 18833 ft | 374 kts | 176° |
| 2026-04-25 15:18 | 40.08848 | 3.41244 | 18553 ft | 352 kts | 176° |
| 2026-04-25 15:18 | 40.06442 | 3.41376 | 18434 ft | 341 kts | 176° |
| 2026-04-25 15:19 | 40.04107 | 3.41504 | 18268 ft | 332 kts | 176° |
| 2026-04-25 15:19 | 40.02536 | 3.41592 | 17734 ft | 339 kts | 176° |
| 2026-04-25 15:19 | 39.99367 | 3.41773 | 16878 ft | 346 kts | 176° |
| 2026-04-25 15:19 | 39.97014 | 3.41907 | 16604 ft | 329 kts | 176° |
| 2026-04-25 15:20 | 39.94791 | 3.42029 | 16469 ft | 310 kts | 176° |
| 2026-04-25 15:20 | 39.92696 | 3.42142 | 16341 ft | 293 kts | 176° |
| 2026-04-25 15:20 | 39.90726 | 3.42246 | 16214 ft | 274 kts | 176° |
| 2026-04-25 15:20 | 39.88879 | 3.42346 | 16084 ft | 257 kts | 176° |
| 2026-04-25 15:21 | 39.87144 | 3.42445 | 15912 ft | 243 kts | 176° |
| 2026-04-25 15:21 | 39.85474 | 3.42545 | 15559 ft | 238 kts | 175° |
| 2026-04-25 15:21 | 39.83817 | 3.42649 | 15252 ft | 237 kts | 175° |
| 2026-04-25 15:21 | 39.82173 | 3.42750 | 14967 ft | 236 kts | 175° |
| 2026-04-25 15:22 | 39.80537 | 3.42847 | 14676 ft | 235 kts | 175° |
| 2026-04-25 15:22 | 39.78907 | 3.42939 | 14391 ft | 234 kts | 175° |
| 2026-04-25 15:22 | 39.77281 | 3.43028 | 14106 ft | 233 kts | 175° |
| 2026-04-25 15:22 | 39.75664 | 3.43112 | 13813 ft | 232 kts | 175° |
| 2026-04-25 15:23 | 39.74053 | 3.43199 | 13529 ft | 231 kts | 175° |
| 2026-04-25 15:23 | 39.72456 | 3.43292 | 13250 ft | 229 kts | 175° |
| 2026-04-25 15:23 | 39.70871 | 3.43386 | 12950 ft | 228 kts | 175° |
| 2026-04-25 15:23 | 39.69290 | 3.43474 | 12657 ft | 227 kts | 175° |
| 2026-04-25 15:24 | 39.67719 | 3.43568 | 12371 ft | 225 kts | 175° |
| 2026-04-25 15:24 | 39.66155 | 3.43658 | 12080 ft | 225 kts | 175° |
| 2026-04-25 15:24 | 39.64595 | 3.43744 | 11800 ft | 224 kts | 175° |
| 2026-04-25 15:24 | 39.63567 | 3.43781 | 11631 ft | 223 kts | 182° |
| 2026-04-25 15:25 | 39.61715 | 3.42739 | 11232 ft | 222 kts | 224° |
| 2026-04-25 15:25 | 39.60699 | 3.41266 | 10933 ft | 222 kts | 231° |
| 2026-04-25 15:25 | 39.59747 | 3.39703 | 10683 ft | 220 kts | 232° |
| 2026-04-25 15:25 | 39.58813 | 3.38137 | 10396 ft | 220 kts | 232° |
| 2026-04-25 15:26 | 39.57881 | 3.36566 | 10172 ft | 218 kts | 232° |
| 2026-04-25 15:26 | 39.56957 | 3.35005 | 9884 ft | 218 kts | 232° |
| 2026-04-25 15:26 | 39.56035 | 3.33446 | 9604 ft | 217 kts | 232° |
| 2026-04-25 15:26 | 39.55281 | 3.31748 | 9321 ft | 214 kts | 259° |
| 2026-04-25 15:27 | 39.55354 | 3.29872 | 9006 ft | 210 kts | 295° |
| 2026-04-25 15:27 | 39.56219 | 3.28432 | 8673 ft | 206 kts | 324° |
| 2026-04-25 15:27 | 39.58681 | 3.26458 | 8045 ft | 207 kts | 332° |
| 2026-04-25 15:28 | 39.59930 | 3.25524 | 7754 ft | 207 kts | 332° |
| 2026-04-25 15:28 | 39.61177 | 3.24605 | 7500 ft | 206 kts | 332° |
| 2026-04-25 15:28 | 39.62423 | 3.23683 | 7227 ft | 206 kts | 331° |
| 2026-04-25 15:28 | 39.63666 | 3.22777 | 6986 ft | 204 kts | 332° |
| 2026-04-25 15:29 | 39.64905 | 3.21877 | 6714 ft | 204 kts | 333° |
| 2026-04-25 15:29 | 39.66125 | 3.20976 | 6452 ft | 204 kts | 333° |
| 2026-04-25 15:29 | 39.67374 | 3.20056 | 6148 ft | 204 kts | 333° |
| 2026-04-25 15:29 | 39.68436 | 3.18868 | 6025 ft | 204 kts | 300° |
| 2026-04-25 15:30 | 39.68859 | 3.17127 | 5776 ft | 205 kts | 277° |
| 2026-04-25 15:30 | 39.68979 | 3.15285 | 5523 ft | 204 kts | 273° |
| 2026-04-25 15:30 | 39.69050 | 3.13433 | 5239 ft | 206 kts | 272° |
| 2026-04-25 15:30 | 39.69115 | 3.11577 | 5065 ft | 205 kts | 272° |
| 2026-04-25 15:31 | 39.69178 | 3.09730 | 5023 ft | 203 kts | 272° |
| 2026-04-25 15:31 | 39.69240 | 3.07893 | 5029 ft | 204 kts | 272° |
| 2026-04-25 15:31 | 39.69262 | 3.06052 | 5027 ft | 205 kts | 261° |
| 2026-04-25 15:31 | 39.68799 | 3.04346 | 4905 ft | 204 kts | 238° |
| 2026-04-25 15:32 | 39.68059 | 3.02771 | 4670 ft | 204 kts | 238° |
| 2026-04-25 15:32 | 39.67316 | 3.01200 | 4418 ft | 203 kts | 238° |
| 2026-04-25 15:32 | 39.66582 | 2.99638 | 4150 ft | 203 kts | 238° |
| 2026-04-25 15:33 | 39.65134 | 2.96552 | 3596 ft | 197 kts | 239° |
| 2026-04-25 15:33 | 39.64424 | 2.95038 | 3346 ft | 195 kts | 239° |
| 2026-04-25 15:33 | 39.63715 | 2.93528 | 3082 ft | 192 kts | 238° |
| 2026-04-25 15:33 | 39.63036 | 2.92083 | 2836 ft | 189 kts | 238° |
| 2026-04-25 15:34 | 39.62358 | 2.90640 | 2579 ft | 185 kts | 237° |
| 2026-04-25 15:34 | 39.61685 | 2.89209 | 2328 ft | 183 kts | 237° |
| 2026-04-25 15:34 | 39.61023 | 2.87801 | 2072 ft | 182 kts | 237° |
| 2026-04-25 15:34 | 39.60810 | 2.87348 | 1992 ft | 180 kts | 237° |
| 2026-04-25 15:35 | 39.59187 | 2.83897 | 1408 ft | 152 kts | 236° |
| 2026-04-25 15:35 | 39.58652 | 2.82764 | 1201 ft | 148 kts | 236° |
| 2026-04-25 15:35 | 39.58124 | 2.81645 | 1016 ft | 143 kts | 236° |
| 2026-04-25 15:36 | 39.57114 | 2.79503 | 649 ft | 134 kts | 238° |
| 2026-04-25 15:36 | 39.56633 | 2.78485 | 469 ft | 132 kts | 238° |
| 2026-04-25 15:36 | 39.56156 | 2.77472 | 299 ft | 131 kts | 239° |
| 2026-04-25 15:37 | 39.55683 | 2.76459 | 148 ft | 131 kts | 238° |
| 2026-04-25 15:37 | 39.55219 | 2.75465 | 45 ft | 119 kts | 238° |
| 2026-04-25 15:37 | 39.54842 | 2.74683 | 30 ft | 80 kts | 238° |
| 2026-04-25 15:37 | 39.54642 | 2.74260 | 30 ft | 30 kts | 240° |
| 2026-04-25 15:38 | 39.54568 | 2.74060 | 30 ft | 24 kts | 250° |
| 2026-04-25 15:38 | 39.54559 | 2.73853 | 30 ft | 21 kts | 270° |
| 2026-04-25 15:38 | 39.54560 | 2.73722 | 30 ft | 4 kts | 275° |
| 2026-04-25 15:39 | 39.54562 | 2.73711 | 30 ft | 7 kts | 281° |
| 2026-04-25 15:39 | 39.54616 | 2.73628 | 30 ft | 14 kts | 339° |
| 2026-04-25 15:39 | 39.54700 | 2.73589 | 30 ft | 12 kts | 328° |
| 2026-04-25 15:39 | 39.54768 | 2.73532 | 30 ft | 11 kts | 328° |
| 2026-04-25 15:40 | 39.54832 | 2.73499 | 30 ft | 9 kts | 9° |
| 2026-04-25 15:40 | 39.54850 | 2.73512 | 30 ft | 9 kts | 37° |
| 2026-04-25 15:40 | 39.54872 | 2.73541 | 30 ft | 2 kts | 46° |
| 2026-04-25 15:40 | 39.54873 | 2.73542 | 30 ft | 0 kts | 46° |